createdAt,value
2018-06-14T00:01:13.338Z,999.90
2018-06-14T00:03:54.636Z,999.90
2018-06-14T00:06:35.095Z,999.90
2018-06-14T00:09:31.435Z,999.90
2018-06-14T00:12:12.454Z,999.90
2018-06-14T00:14:52.413Z,999.90
2018-06-14T00:17:34.679Z,999.90
2018-06-14T00:20:13.912Z,999.90
2018-06-14T00:22:53.273Z,999.90
2018-06-14T00:25:32.651Z,999.90
2018-06-14T00:28:09.757Z,999.90
2018-06-14T00:30:46.674Z,999.90
2018-06-14T00:33:27.253Z,999.90
2018-06-14T00:36:07.311Z,999.90
2018-06-14T00:38:49.412Z,999.90
2018-06-14T00:41:35.535Z,999.90
2018-06-14T00:44:14.073Z,999.90
2018-06-14T00:46:54.114Z,999.90
2018-06-14T00:49:33.195Z,999.90
2018-06-14T00:52:13.977Z,999.90
2018-06-14T00:54:53.857Z,999.90
2018-06-14T00:57:35.077Z,946.60
2018-06-14T01:00:15.353Z,943.53
2018-06-14T01:02:55.092Z,498.40
2018-06-14T22:31:42.301Z,681.87
2018-06-14T22:34:33.920Z,748.23
2018-06-14T22:37:19.545Z,707.07
2018-06-14T22:39:59.083Z,685.27
2018-06-14T22:42:39.324Z,674.17
2018-06-14T22:48:01.479Z,710.57
2018-06-14T22:56:38.998Z,454.93
2018-06-14T22:59:19.517Z,383.43
2018-06-14T23:01:59.595Z,425.40
2018-06-14T23:04:48.585Z,346.73
2018-06-14T23:07:30.795Z,339.67
2018-06-14T23:10:33.544Z,299.97
2018-06-14T23:13:12.824Z,303.70
2018-06-14T23:15:52.460Z,273.70
2018-06-14T23:18:31.427Z,245.07
2018-06-14T23:21:11.705Z,210.97
2018-06-14T23:23:50.938Z,210.10
2018-06-14T23:26:28.076Z,228.90
2018-06-14T23:29:09.580Z,254.83
2018-06-14T23:31:55.000Z,284.60
2018-06-14T23:34:31.743Z,297.83
2018-06-14T23:37:09.759Z,246.90
2018-06-14T23:39:51.475Z,234.53
2018-06-14T23:42:29.459Z,201.50
2018-06-14T23:45:11.380Z,205.93
2018-06-14T23:47:58.903Z,194.30
